Time;durP1;ratioP1;P1;durP2;ratioP2;P2;SDS_P1;SDS_P2;PMS_P1;PMS_P2;Temp;Humidity;BMP_temperature;BMP_pressure;BME280_temperature;BME280_humidity;BME280_pressure;Samples;Min_cycle;Max_cycle;Signal;HPM_P1;HPM_P2
2022/04/30 00:00:12;;;;;;;29.30;10.43;;;;;;;9.15;45.57;101675.52;1633401;86;25858;-61
2022/04/30 00:02:40;;;;;;;28.55;10.63;;;;;;;9.10;45.70;101672.94;1677994;84;98781;-61
2022/04/30 00:05:09;;;;;;;23.22;10.55;;;;;;;9.06;45.92;101673.45;1679467;84;26210;-60
2022/04/30 00:07:38;;;;;;;26.60;10.60;;;;;;;9.02;46.00;101666.87;1677948;84;98763;-61
2022/04/30 00:10:06;;;;;;;20.45;9.43;;;;;;;8.99;46.08;101669.60;1674047;84;26684;-60
2022/04/30 00:12:32;;;;;;;21.85;9.48;;;;;;;8.95;46.17;101672.80;1678253;84;25801;-61
2022/04/30 00:14:58;;;;;;;19.32;9.03;;;;;;;8.91;46.27;101673.77;1676859;84;98611;-61
2022/04/30 00:17:24;;;;;;;23.60;10.13;;;;;;;8.87;46.41;101672.52;1678501;84;25901;-61
2022/04/30 00:19:50;;;;;;;30.50;10.00;;;;;;;8.84;46.49;101672.58;1677554;84;98602;-61
2022/04/30 00:22:18;;;;;;;23.77;10.00;;;;;;;8.81;46.67;101673.98;1676102;84;26147;-60
2022/04/30 00:24:46;;;;;;;24.35;9.48;;;;;;;8.76;46.71;101673.61;1677954;84;26061;-60
2022/04/30 00:27:13;;;;;;;21.55;9.48;;;;;;;8.72;46.89;101681.27;1675254;84;98496;-61
2022/04/30 00:29:42;;;;;;;27.77;10.28;;;;;;;8.69;46.89;101684.45;1679303;84;25925;-61
2022/04/30 00:32:11;;;;;;;22.93;11.25;;;;;;;8.64;47.04;101682.33;1676418;84;98751;-61
2022/04/30 00:34:38;;;;;;;18.62;9.60;;;;;;;8.60;47.18;101682.84;1678001;84;25863;-61
2022/04/30 00:37:08;;;;;;;20.35;9.40;;;;;;;8.59;47.28;101686.42;1676619;84;98734;-62
2022/04/30 00:39:36;;;;;;;24.52;10.28;;;;;;;8.55;47.44;101686.05;1677228;84;26701;-61
2022/04/30 00:42:04;;;;;;;25.72;10.32;;;;;;;8.53;47.55;101689.20;1674814;84;25816;-62
2022/04/30 00:44:31;;;;;;;26.30;10.68;;;;;;;8.45;47.70;101675.98;1673615;84;98654;-61
2022/04/30 00:47:00;;;;;;;27.13;10.15;;;;;;;8.49;47.79;101688.83;1641384;85;27103;-62
2022/04/30 00:49:26;;;;;;;26.82;11.33;;;;;;;8.46;47.85;101679.53;1618253;86;99081;-61
2022/04/30 00:51:55;;;;;;;23.67;10.58;;;;;;;8.44;48.06;101681.35;1633067;86;25953;-61
2022/04/30 00:54:24;;;;;;;25.57;10.95;;;;;;;8.41;48.14;101675.61;1642950;86;25819;-62
2022/04/30 00:56:59;;;;;;;28.75;11.60;;;;;;;8.39;48.21;101676.09;1630560;86;98778;-61
2022/04/30 00:59:26;;;;;;;25.20;10.45;;;;;;;8.36;48.35;101673.47;1671279;85;26396;-61
2022/04/30 01:01:52;;;;;;;29.98;11.22;;;;;;;8.33;48.40;101673.98;1674515;85;98703;-61
2022/04/30 01:04:19;;;;;;;29.65;10.53;;;;;;;8.31;48.61;101668.64;1674706;84;27869;-61
2022/04/30 01:07:07;;;;;;;24.05;11.50;;;;;;;8.29;48.71;101668.23;1678688;84;25904;-61
2022/04/30 01:09:38;;;;;;;26.00;10.45;;;;;;;8.26;48.76;101668.29;1675293;85;27475;-62
2022/04/30 01:12:10;;;;;;;27.58;10.80;;;;;;;8.23;48.82;101663.00;1670411;84;25962;-61
2022/04/30 01:14:39;;;;;;;31.80;10.93;;;;;;;8.18;48.98;101659.08;1676120;85;98720;-60
2022/04/30 01:17:09;;;;;;;26.50;10.35;;;;;;;8.17;48.99;101658.64;1676089;84;25787;-61
2022/04/30 01:19:39;;;;;;;27.17;11.00;;;;;;;8.09;49.04;101657.44;1676472;84;99220;-62
2022/04/30 01:22:33;;;;;;;27.00;11.35;;;;;;;8.06;49.20;101657.95;1676102;83;27576;-60
2022/04/30 01:25:02;;;;;;;24.27;9.75;;;;;;;8.02;49.38;101663.79;1671631;85;25734;-60
2022/04/30 01:27:31;;;;;;;28.60;10.78;;;;;;;8.00;49.58;101665.61;1677745;84;97729;-61
2022/04/30 01:30:01;;;;;;;25.27;10.78;;;;;;;7.99;49.62;101657.17;1673080;84;26509;-61
2022/04/30 01:38:12;;;;;;;26.85;10.43;;;;;;;7.93;49.95;101660.39;1677682;84;98728;-61
2022/04/30 01:40:39;;;;;;;27.32;11.60;;;;;;;7.89;50.10;101660.89;1677587;84;26145;-61
2022/04/30 01:43:08;;;;;;;25.65;10.68;;;;;;;7.86;50.19;101662.28;1647270;85;25817;-61
2022/04/30 01:45:37;;;;;;;19.95;10.68;;;;;;;7.82;50.32;101663.23;1634857;86;98578;-61
2022/04/30 01:48:12;;;;;;;26.70;10.03;;;;;;;7.78;50.41;101660.22;1662020;84;27456;-60
2022/04/30 01:50:43;;;;;;;28.60;10.75;;;;;;;7.76;50.59;101660.69;1653762;85;98818;-62
2022/04/30 01:53:12;;;;;;;24.52;10.98;;;;;;;7.73;50.71;101664.74;1640719;85;26465;-61
2022/04/30 01:55:38;;;;;;;30.70;10.28;;;;;;;7.68;50.88;101662.14;1657002;85;98753;-61
2022/04/30 01:58:08;;;;;;;22.48;9.63;;;;;;;7.67;51.01;101664.38;1641492;85;25867;-61
2022/04/30 02:00:34;;;;;;;27.15;11.22;;;;;;;7.63;51.00;101664.00;1657872;85;27535;-61
2022/04/30 02:03:05;;;;;;;21.55;10.10;;;;;;;7.59;51.22;101661.40;1641928;85;98690;-61
2022/04/30 02:05:32;;;;;;;21.62;10.05;;;;;;;7.56;51.28;101665.00;1653282;84;25825;-61
2022/04/30 02:08:11;;;;;;;21.45;10.35;;;;;;;7.55;51.40;101663.68;1639147;85;99008;-61
2022/04/30 02:10:41;;;;;;;24.23;10.53;;;;;;;7.52;51.51;101661.06;1658105;85;26137;-61
2022/04/30 02:13:09;;;;;;;24.95;11.18;;;;;;;7.52;51.58;101657.06;1628929;86;27529;-61
2022/04/30 02:15:40;;;;;;;19.40;9.05;;;;;;;7.50;51.60;101651.74;1653323;85;98612;-61
2022/04/30 02:18:12;;;;;;;22.25;9.58;;;;;;;7.45;51.71;101646.93;1641550;86;26557;-61
2022/04/30 02:20:44;;;;;;;19.50;9.18;;;;;;;7.41;51.86;101639.87;1625098;86;98588;-60
2022/04/30 02:23:14;;;;;;;22.45;10.28;;;;;;;7.39;51.88;101639.89;1659472;85;25608;-60
2022/04/30 02:25:39;;;;;;;21.70;9.63;;;;;;;7.37;52.09;101642.16;1653875;85;98884;-60
2022/04/30 02:28:08;;;;;;;24.02;10.32;;;;;;;7.35;52.03;101647.52;1633671;86;25911;-60
2022/04/30 02:30:38;;;;;;;19.40;8.75;;;;;;;7.33;52.21;101643.10;1638973;85;38250;-62
2022/04/30 02:33:08;;;;;;;29.57;9.88;;;;;;;7.28;52.24;101641.84;1634607;86;98586;-61
2022/04/30 02:35:43;;;;;;;22.95;9.75;;;;;;;7.25;52.23;101640.99;1640655;85;26542;-61
2022/04/30 02:38:09;;;;;;;25.57;9.98;;;;;;;7.21;52.52;101636.16;1637124;85;98533;-61
2022/04/30 02:40:37;;;;;;;33.98;10.60;;;;;;;7.22;52.59;101635.70;1636469;86;25851;-61
2022/04/30 02:43:08;;;;;;;22.70;9.98;;;;;;;7.23;52.72;101641.02;1638164;85;26151;-61
2022/04/30 02:45:36;;;;;;;24.30;9.10;;;;;;;7.24;52.77;101637.45;1610778;86;98487;-61
2022/04/30 02:48:06;;;;;;;22.10;10.13;;;;;;;7.21;52.73;101634.82;1629609;86;26499;-61
2022/04/30 02:50:36;;;;;;;26.23;10.70;;;;;;;7.16;52.90;101633.55;1639404;85;97923;-61
2022/04/30 02:53:03;;;;;;;26.52;10.70;;;;;;;7.17;53.00;101631.77;1654557;84;25810;-61
2022/04/30 02:55:31;;;;;;;26.15;10.18;;;;;;;7.15;53.11;101626.91;1641059;85;99031;-61
2022/04/30 03:00:46;;;;;;;23.83;9.65;;;;;;;7.14;53.27;101622.48;1637971;85;25774;-62
2022/04/30 03:03:15;;;;;;;25.72;9.23;;;;;;;7.12;53.29;101617.16;1637660;85;98586;-61
2022/04/30 03:05:48;;;;;;;26.55;10.30;;;;;;;7.13;53.40;101616.27;1641109;85;26525;-61
2022/04/30 03:08:19;;;;;;;26.17;10.03;;;;;;;7.14;53.50;101616.69;1658602;85;98637;-61
2022/04/30 03:10:50;;;;;;;26.50;10.35;;;;;;;7.15;53.65;101615.79;1638829;86;26467;-61
2022/04/30 03:13:18;;;;;;;27.85;10.75;;;;;;;7.15;53.70;101608.24;1638292;87;99020;-61
2022/04/30 03:15:45;;;;;;;22.67;9.60;;;;;;;7.16;53.69;101608.22;1654926;84;27395;-61
2022/04/30 03:23:38;;;;;;;21.90;9.40;;;;;;;7.09;53.95;101604.33;1646806;85;26580;-60
2022/04/30 03:26:08;;;;;;;24.25;10.28;;;;;;;7.09;53.94;101610.55;1632192;86;98510;-63
2022/04/30 03:28:40;;;;;;;25.63;10.13;;;;;;;7.08;54.01;101602.11;1659347;85;27398;-63
2022/04/30 03:31:12;;;;;;;20.55;9.25;;;;;;;7.09;54.12;101602.55;1656584;85;25932;-61
2022/04/30 03:33:43;;;;;;;24.60;9.33;;;;;;;7.11;54.21;101604.73;1634106;86;98400;-61
2022/04/30 03:36:12;;;;;;;28.38;10.03;;;;;;;7.10;54.10;101599.42;1642484;85;25822;-62
2022/04/30 03:38:38;;;;;;;19.30;9.70;;;;;;;7.08;54.26;101602.11;1649695;85;98764;-62
2022/04/30 03:41:05;;;;;;;19.92;9.53;;;;;;;7.08;54.29;101599.90;1641440;85;27572;-62
2022/04/30 03:43:31;;;;;;;25.37;9.45;;;;;;;7.06;54.34;101598.59;1641569;85;98827;-62
2022/04/30 03:46:00;;;;;;;22.73;9.68;;;;;;;7.06;54.50;101607.03;1639805;85;25807;-62
2022/04/30 03:48:28;;;;;;;18.82;8.98;;;;;;;7.08;54.49;101606.56;1642968;85;26249;-61
2022/04/30 03:50:56;;;;;;;19.10;8.85;;;;;;;7.07;54.61;101608.34;1640753;85;98691;-60
2022/04/30 03:53:22;;;;;;;24.27;9.00;;;;;;;7.07;54.68;101602.13;1640614;86;27505;-61
2022/04/30 03:55:49;;;;;;;21.15;9.43;;;;;;;7.09;54.76;101594.55;1641204;85;98782;-61
2022/04/30 03:58:16;;;;;;;18.75;9.35;;;;;;;7.12;54.83;101594.50;1639735;87;25829;-62
2022/04/30 04:00:43;;;;;;;19.55;8.78;;;;;;;7.14;54.93;101598.48;1641553;85;26383;-62
2022/04/30 04:03:10;;;;;;;19.70;9.35;;;;;;;7.17;55.00;101601.11;1636903;85;98638;-60
2022/04/30 04:05:35;;;;;;;19.77;8.70;;;;;;;7.21;55.08;101597.95;1638280;85;27426;-61
2022/04/30 04:08:01;;;;;;;24.18;9.03;;;;;;;7.24;55.20;101596.11;1641133;85;98549;-61
2022/04/30 04:10:27;;;;;;;25.92;9.65;;;;;;;7.29;55.24;101598.27;1643200;85;25755;-61
2022/04/30 04:17:37;;;;;;;23.77;9.73;;;;;;;7.34;55.29;101607.53;1643006;85;25845;-61
2022/04/30 04:18:06;;;;;;;23.52;10.32;;;;;;;7.42;55.40;101608.30;1608977;87;27455;-61
2022/04/30 04:20:33;;;;;;;18.12;9.08;;;;;;;7.45;55.37;101610.47;1634208;86;98896;-61
2022/04/30 04:23:01;;;;;;;22.42;8.25;;;;;;;7.49;55.33;101608.63;1635124;86;26645;-61
2022/04/30 04:28:12;;;;;;;18.42;7.92;;;;;;;7.53;55.45;101602.80;1630486;87;25796;-61
2022/04/30 04:30:38;;;;;;;20.77;9.23;;;;;;;7.57;55.47;101608.52;1606212;88;27443;-61
2022/04/30 04:33:04;;;;;;;20.08;9.93;;;;;;;7.59;55.45;101608.04;1604588;87;98648;-61
2022/04/30 04:35:33;;;;;;;27.62;8.88;;;;;;;7.62;55.47;101607.54;1624382;86;26385;-61
2022/04/30 04:37:59;;;;;;;22.67;9.15;;;;;;;7.56;55.56;101577.41;1634011;86;98753;-61
2022/04/30 04:40:29;;;;;;;23.73;9.35;;;;;;;7.56;55.56;101577.41;1641449;86;26356;-60
2022/04/30 04:42:54;;;;;;;18.95;8.98;;;;;;;7.72;55.58;101608.27;1656501;86;29499;-61
2022/04/30 04:45:26;;;;;;;18.05;8.88;;;;;;;7.76;55.58;101612.20;1661288;84;98488;-62
2022/04/30 04:47:52;;;;;;;19.12;8.85;;;;;;;7.79;55.56;101609.48;1650823;85;25767;-62
2022/04/30 04:50:18;;;;;;;17.90;9.03;;;;;;;7.85;55.57;101614.25;1633187;86;98635;-62
2022/04/30 04:52:47;;;;;;;16.12;8.10;;;;;;;7.88;55.57;101612.87;1637542;87;25838;-62
2022/04/30 04:55:15;;;;;;;29.42;10.32;;;;;;;7.90;55.51;101611.94;1632369;85;27441;-62
2022/04/30 04:57:41;;;;;;;15.30;8.15;;;;;;;7.93;55.55;101612.34;1634925;86;98924;-62
2022/04/30 05:00:10;;;;;;;19.67;8.88;;;;;;;7.96;55.58;101612.29;1634328;86;25886;-62
2022/04/30 05:02:37;;;;;;;19.17;8.38;;;;;;;8.01;55.56;101611.30;1632780;86;98930;-62
2022/04/30 05:05:04;;;;;;;23.83;9.85;;;;;;;8.03;55.63;101607.27;1637170;86;26048;-62
2022/04/30 05:07:30;;;;;;;24.52;9.43;;;;;;;8.08;55.59;101608.95;1633910;86;99020;-63
2022/04/30 05:10:00;;;;;;;18.45;8.10;;;;;;;8.12;55.63;101605.77;1632283;86;26512;-60
2022/04/30 05:12:28;;;;;;;23.75;9.13;;;;;;;8.19;55.65;101607.88;1627115;87;25746;-60
2022/04/30 05:14:55;;;;;;;17.73;8.65;;;;;;;8.24;55.67;101610.01;1607668;86;98709;-61
2022/04/30 05:17:21;;;;;;;19.17;8.83;;;;;;;8.30;55.62;101611.23;1624887;86;25725;-60
2022/04/30 05:19:48;;;;;;;24.98;9.03;;;;;;;8.36;55.65;101603.14;1616238;87;98631;-60
2022/04/30 05:22:14;;;;;;;26.68;9.58;;;;;;;8.43;55.67;101604.33;1601652;88;25875;-60
2022/04/30 05:24:42;;;;;;;25.92;8.85;;;;;;;8.52;55.63;101601.05;1598556;87;25884;-61
2022/04/30 05:27:11;;;;;;;24.55;9.10;;;;;;;8.60;55.60;101603.13;1620287;86;99085;-61
2022/04/30 05:29:37;;;;;;;20.30;8.80;;;;;;;8.68;55.59;101600.72;1619569;87;25745;-61
2022/04/30 05:32:04;;;;;;;16.50;7.95;;;;;;;8.79;55.61;101604.51;1598814;86;99221;-61
2022/04/30 05:34:30;;;;;;;22.22;10.03;;;;;;;8.89;55.54;101605.20;1623142;87;25787;-60
2022/04/30 05:36:56;;;;;;;21.45;8.55;;;;;;;8.99;55.53;101610.31;1593063;89;25858;-61
2022/04/30 05:39:23;;;;;;;22.55;9.35;;;;;;;9.06;55.43;101609.73;1591016;88;99098;-61
2022/04/30 05:41:52;;;;;;;20.43;9.58;;;;;;;9.09;55.32;101601.64;1612218;87;25821;-61
2022/04/30 05:44:19;;;;;;;25.15;9.85;;;;;;;9.11;55.33;101607.84;1613875;86;99117;-61
2022/04/30 05:46:46;;;;;;;17.77;8.78;;;;;;;9.19;55.40;101615.23;1592720;88;25717;-61
2022/04/30 05:49:13;;;;;;;17.57;9.03;;;;;;;9.27;55.29;101614.61;1625230;87;26247;-61
2022/04/30 05:51:39;;;;;;;25.75;11.53;;;;;;;9.32;55.30;101604.68;1601059;88;98412;-62
2022/04/30 05:54:07;;;;;;;23.10;9.45;;;;;;;9.38;55.22;101605.88;1620102;87;25768;-62
2022/04/30 05:56:34;;;;;;;24.92;9.95;;;;;;;9.48;55.26;101612.35;1641490;85;98810;-62
2022/04/30 05:59:01;;;;;;;19.95;8.63;;;;;;;9.57;55.24;101610.34;1658894;84;26387;-61
2022/04/30 06:01:29;;;;;;;24.82;8.85;;;;;;;9.65;55.20;101605.69;1649887;85;99023;-60
2022/04/30 06:03:55;;;;;;;24.80;10.10;;;;;;;9.71;55.17;101601.52;1631789;86;26386;-62
2022/04/30 06:06:24;;;;;;;19.42;9.55;;;;;;;9.81;55.09;101602.17;1629752;86;25769;-62
2022/04/30 06:08:50;;;;;;;21.62;9.63;;;;;;;9.88;55.07;101606.45;1633045;86;99195;-62
2022/04/30 06:11:21;;;;;;;23.32;9.18;;;;;;;9.87;54.92;101606.03;1630104;86;26424;-62
2022/04/30 06:13:47;;;;;;;24.02;9.40;;;;;;;9.84;54.84;101604.77;1628302;86;99419;-62
2022/04/30 06:16:14;;;;;;;19.42;9.88;;;;;;;9.91;54.90;101612.20;1658144;85;26362;-62
2022/04/30 06:18:45;;;;;;;25.32;9.18;;;;;;;9.95;54.88;101613.88;1660534;84;25733;-62
2022/04/30 06:21:11;;;;;;;29.82;10.55;;;;;;;10.03;54.85;101607.86;1635676;86;98763;-61
2022/04/30 06:23:37;;;;;;;23.75;10.58;;;;;;;10.10;54.80;101610.81;1632480;86;27217;-61
2022/04/30 06:26:03;;;;;;;28.52;9.95;;;;;;;10.23;54.81;101616.30;1628834;86;99358;-61
2022/04/30 06:28:30;;;;;;;22.52;9.33;;;;;;;10.38;54.79;101617.69;1622992;87;25862;-61
2022/04/30 06:30:57;;;;;;;26.45;10.48;;;;;;;10.48;54.63;101609.78;1660377;85;26446;-62
2022/04/30 06:33:26;;;;;;;23.70;9.80;;;;;;;10.57;54.60;101612.67;1655107;84;99113;-62
2022/04/30 06:35:53;;;;;;;23.95;9.88;;;;;;;10.67;54.51;101615.52;1653623;86;25856;-61
2022/04/30 06:38:21;;;;;;;20.08;9.28;;;;;;;10.73;54.46;101611.31;1623723;86;98884;-61
2022/04/30 06:40:48;;;;;;;26.07;10.15;;;;;;;10.85;54.35;101614.11;1639326;86;26418;-61
2022/04/30 06:43:14;;;;;;;25.05;10.25;;;;;;;10.97;54.42;101616.44;1630016;86;26221;-61
2022/04/30 06:45:40;;;;;;;20.25;8.95;;;;;;;11.14;54.34;101614.59;1604755;87;99058;-61
2022/04/30 06:48:08;;;;;;;16.75;8.83;;;;;;;11.26;54.27;101617.78;1610085;87;26375;-61
2022/04/30 06:50:37;;;;;;;21.10;9.95;;;;;;;11.37;54.07;101615.64;1609240;87;98851;-61
2022/04/30 06:58:59;;;;;;;25.10;9.88;;;;;;;11.77;53.87;101622.46;1612798;87;27446;-63
2022/04/30 07:03:29;;;;;;;29.72;10.55;;;;;;;12.07;53.57;101616.53;1633898;86;99039;-60
2022/04/30 07:06:04;;;;;;;31.90;11.05;;;;;;;12.18;53.48;101613.48;1635330;86;25793;-61
2022/04/30 07:08:32;;;;;;;24.85;10.85;;;;;;;12.21;53.33;101607.53;1647290;85;99114;-60
2022/04/30 07:11:04;;;;;;;20.50;10.15;;;;;;;12.33;53.24;101610.25;1634329;86;26974;-61
2022/04/30 07:13:31;;;;;;;21.15;9.30;;;;;;;12.36;53.01;101612.84;1606254;87;99197;-61
2022/04/30 07:15:58;;;;;;;21.93;10.05;;;;;;;12.49;52.99;101610.13;1628892;86;25810;-61
2022/04/30 07:21:14;;;;;;;20.88;9.35;;;;;;;12.82;52.81;101613.39;1682349;83;99001;-61
2022/04/30 07:23:41;;;;;;;21.30;10.23;;;;;;;12.95;52.53;101614.69;1682274;83;27796;-61
2022/04/30 07:26:09;;;;;;;17.85;9.75;;;;;;;13.03;52.46;101614.83;1683101;83;99678;-60
2022/04/30 07:28:36;;;;;;;19.27;9.03;;;;;;;13.14;52.32;101609.45;1680009;83;26255;-61
2022/04/30 07:31:06;;;;;;;28.50;10.82;;;;;;;13.27;52.21;101612.58;1685180;83;25897;-60
2022/04/30 07:33:32;;;;;;;18.70;9.57;;;;;;;13.41;52.04;101610.69;1687983;82;99564;-67
2022/04/30 07:35:58;;;;;;;24.35;9.33;;;;;;;13.50;51.86;101608.97;1675922;84;27873;-65
2022/04/30 07:38:26;;;;;;;24.18;9.50;;;;;;;13.63;51.79;101611.11;1679268;84;99078;-61
2022/04/30 07:40:54;;;;;;;20.88;9.10;;;;;;;13.79;51.67;101607.80;1673412;84;25804;-60
2022/04/30 07:43:21;;;;;;;20.25;9.28;;;;;;;13.94;51.40;101606.69;1695630;83;27788;-62
2022/04/30 07:45:48;;;;;;;22.10;9.03;;;;;;;13.95;51.10;101601.70;1695591;83;98727;-60
2022/04/30 07:48:16;;;;;;;17.90;8.85;;;;;;;13.89;50.83;101601.95;1716375;81;29514;-59
2022/04/30 07:50:44;;;;;;;17.48;8.75;;;;;;;13.80;50.61;101598.30;1711168;81;98927;-60
2022/04/30 07:53:14;;;;;;;20.10;9.25;;;;;;;13.96;50.86;101604.80;1714845;81;25760;-60
2022/04/30 07:55:43;;;;;;;19.02;8.93;;;;;;;14.17;50.67;101604.83;1715456;81;98886;-61
2022/04/30 07:58:09;;;;;;;31.27;9.33;;;;;;;14.30;50.47;101602.89;1714921;81;26250;-60
2022/04/30 08:00:36;;;;;;;17.35;9.33;;;;;;;14.51;50.40;101602.45;1718475;81;27408;-61
2022/04/30 08:03:03;;;;;;;22.95;8.93;;;;;;;14.62;50.07;101607.36;1716368;81;98996;-60
2022/04/30 08:05:30;;;;;;;15.98;8.75;;;;;;;14.70;49.87;101611.95;1712234;81;25958;-60
2022/04/30 08:07:57;;;;;;;17.92;8.70;;;;;;;14.65;49.60;101603.18;1708001;81;98222;-60
2022/04/30 08:10:24;;;;;;;22.60;9.43;;;;;;;14.63;49.44;101608.24;1702279;82;25867;-60
2022/04/30 08:12:56;;;;;;;17.35;9.60;;;;;;;14.72;49.36;101607.83;1694095;83;28063;-60
2022/04/30 08:15:26;;;;;;;25.30;9.48;;;;;;;14.69;49.10;101607.97;1678389;83;98677;-60
2022/04/30 08:17:55;;;;;;;19.42;8.85;;;;;;;14.67;49.00;101606.69;1693392;83;25787;-63
2022/04/30 08:20:21;;;;;;;22.80;8.88;;;;;;;14.80;49.04;101602.95;1697087;83;98086;-61
2022/04/30 08:22:47;;;;;;;18.07;8.63;;;;;;;14.90;48.86;101605.17;1696141;83;25823;-60
2022/04/30 08:25:13;;;;;;;26.27;9.18;;;;;;;14.97;48.63;101603.53;1696039;83;27533;-61
2022/04/30 08:27:41;;;;;;;17.62;8.43;;;;;;;15.00;48.52;101602.92;1692637;83;98579;-61
2022/04/30 08:30:11;;;;;;;21.55;7.97;;;;;;;15.18;48.52;101603.41;1719847;81;25823;-61
2022/04/30 08:32:38;;;;;;;14.07;8.18;;;;;;;15.38;48.31;101601.58;1714612;81;99244;-60
2022/04/30 08:35:08;;;;;;;22.30;8.75;;;;;;;15.50;47.87;101599.64;1719305;81;25850;-60
2022/04/30 08:37:37;;;;;;;22.80;9.03;;;;;;;15.58;47.87;101598.83;1695212;83;99019;-60
2022/04/30 08:40:06;;;;;;;20.10;8.48;;;;;;;15.58;47.87;101598.83;1720312;81;25717;-60
2022/04/30 08:42:32;;;;;;;23.22;8.58;;;;;;;15.71;47.47;101590.48;1720288;81;25723;-60
2022/04/30 08:45:03;;;;;;;16.55;8.13;;;;;;;15.83;47.29;101587.64;1718239;81;98959;-60
2022/04/30 08:47:41;;;;;;;12.75;7.42;;;;;;;15.88;47.13;101590.52;1690399;83;25789;-59
2022/04/30 08:50:11;;;;;;;13.18;7.47;;;;;;;15.98;46.86;101596.33;1719097;81;99110;-62
2022/04/30 08:52:38;;;;;;;12.47;7.28;;;;;;;15.94;46.44;101598.80;1691705;83;25806;-62
2022/04/30 08:55:07;;;;;;;18.05;7.17;;;;;;;16.06;46.32;101598.17;1720982;81;25990;-60
2022/04/30 08:57:33;;;;;;;13.35;6.58;;;;;;;16.17;46.13;101593.09;1698295;83;98799;-61
2022/04/30 09:00:00;;;;;;;19.90;8.53;;;;;;;16.26;45.95;101589.51;1726204;80;26431;-61
2022/04/30 09:02:27;;;;;;;17.70;8.43;;;;;;;16.42;45.88;101586.41;1679360;83;98786;-62
2022/04/30 09:04:54;;;;;;;13.75;6.80;;;;;;;16.53;45.53;101586.23;1695161;83;27087;-60
2022/04/30 09:07:24;;;;;;;12.30;6.83;;;;;;;16.56;45.28;101586.55;1693308;83;26416;-60
2022/04/30 09:10:02;;;;;;;14.73;6.33;;;;;;;16.65;45.05;101585.21;1672395;84;98629;-59
2022/04/30 09:12:29;;;;;;;16.12;6.62;;;;;;;16.63;44.67;101581.68;1664495;84;25780;-60
2022/04/30 09:14:56;;;;;;;14.30;6.55;;;;;;;16.71;44.58;101580.82;1685044;82;98979;-60
2022/04/30 09:17:26;;;;;;;21.77;7.97;;;;;;;16.79;44.33;101579.92;1687425;83;26700;-60
2022/04/30 09:20:03;;;;;;;18.05;10.60;;;;;;;16.86;44.21;101584.05;1693594;82;99086;-63
2022/04/30 09:22:34;;;;;;;16.48;7.85;;;;;;;17.01;44.09;101580.50;1687344;83;26871;-62
2022/04/30 09:25:15;;;;;;;18.55;7.87;;;;;;;17.11;43.76;101584.45;1687874;83;26375;-62
2022/04/30 09:27:55;;;;;;;24.23;8.00;;;;;;;17.11;43.49;101583.09;1684639;83;98897;-61
2022/04/30 09:30:29;;;;;;;18.95;7.28;;;;;;;17.13;43.20;101579.82;1685326;83;25873;-61
2022/04/30 09:33:05;;;;;;;16.15;6.75;;;;;;;17.20;43.13;101576.29;1677259;83;98898;-61
2022/04/30 09:38:18;;;;;;;15.90;6.22;;;;;;;17.44;42.66;101565.90;1677966;83;98887;-60
2022/04/30 09:40:57;;;;;;;11.93;6.50;;;;;;;17.64;42.59;101566.10;1656358;85;27510;-60
2022/04/30 09:43:30;;;;;;;16.97;6.00;;;;;;;17.72;42.27;101564.72;1654630;85;26798;-60
2022/04/30 09:46:03;;;;;;;16.42;6.22;;;;;;;17.88;42.17;101559.76;1653290;85;99062;-60
2022/04/30 09:54:05;;;;;;;14.50;5.97;;;;;;;17.99;41.43;101566.77;1681665;83;27520;-62
2022/04/30 09:56:38;;;;;;;14.10;6.53;;;;;;;18.08;41.28;101560.80;1685480;82;99193;-62
2022/04/30 09:59:15;;;;;;;14.45;6.45;;;;;;;18.24;41.17;101553.45;1685292;83;26066;-61
2022/04/30 10:01:44;;;;;;;9.80;5.08;;;;;;;18.45;41.03;101555.33;1681151;83;99078;-61
2022/04/30 10:04:18;;;;;;;12.47;5.47;;;;;;;18.43;40.50;101554.06;1684705;83;26295;-60
2022/04/30 10:06:48;;;;;;;16.60;5.33;;;;;;;18.48;40.40;101551.06;1688683;83;27381;-61
2022/04/30 10:09:18;;;;;;;11.40;5.47;;;;;;;18.45;39.71;101554.84;1682596;83;98923;-60
2022/04/30 10:12:03;;;;;;;13.43;5.35;;;;;;;18.54;39.39;101552.05;1690567;83;26795;-60
2022/04/30 10:15:02;;;;;;;12.95;5.03;;;;;;;18.54;39.39;101552.05;1679693;82;98924;-60
2022/04/30 10:17:33;;;;;;;8.35;4.53;;;;;;;18.59;39.22;101551.76;1676511;83;25862;-60
2022/04/30 10:20:21;;;;;;;14.03;4.70;;;;;;;18.53;38.93;101548.06;1675166;83;98870;-61
2022/04/30 10:22:54;;;;;;;10.20;3.25;;;;;;;18.43;38.75;101549.99;1705724;82;25752;-62
2022/04/30 10:25:49;;;;;;;15.20;3.33;;;;;;;18.50;38.46;101549.13;1698923;82;25944;-60
2022/04/30 10:28:23;;;;;;;13.70;3.08;;;;;;;18.61;38.29;101549.85;1679956;82;98770;-60
2022/04/30 10:31:10;;;;;;;13.08;3.37;;;;;;;18.70;37.84;101537.92;1697349;83;25845;-60
2022/04/30 10:33:49;;;;;;;6.42;3.65;;;;;;;18.79;37.58;101532.40;1691122;82;98987;-62
2022/04/30 10:36:15;;;;;;;14.13;3.60;;;;;;;18.97;37.44;101529.86;1701543;82;25787;-61
2022/04/30 10:38:46;;;;;;;9.03;3.33;;;;;;;19.13;37.22;101531.11;1701657;82;98880;-61
2022/04/30 10:41:12;;;;;;;9.40;3.05;;;;;;;19.31;37.04;101523.11;1697252;82;26145;-60
2022/04/30 10:43:40;;;;;;;7.45;3.72;;;;;;;19.34;36.62;101522.03;1701011;82;25858;-60
2022/04/30 10:46:20;;;;;;;13.05;3.65;;;;;;;19.25;36.37;101526.72;1697158;82;98959;-60
2022/04/30 10:48:47;;;;;;;10.40;3.12;;;;;;;19.17;36.25;101524.50;1702104;83;26239;-60
2022/04/30 10:51:17;;;;;;;14.47;3.42;;;;;;;19.25;36.15;101528.08;1700005;82;98568;-60
2022/04/30 10:53:47;;;;;;;14.47;3.90;;;;;;;19.29;35.98;101518.26;1700299;83;26473;-60
2022/04/30 10:56:15;;;;;;;11.30;3.98;;;;;;;19.32;35.51;101514.47;1693914;82;99368;-59
2022/04/30 10:58:43;;;;;;;10.23;4.05;;;;;;;19.18;35.20;101519.94;1697110;82;27557;-60
2022/04/30 11:01:18;;;;;;;6.47;3.08;;;;;;;19.08;35.29;101515.10;1698155;82;25679;-60
2022/04/30 11:03:50;;;;;;;11.20;3.75;;;;;;;19.16;35.11;101517.80;1695986;82;98736;-60
2022/04/30 11:06:31;;;;;;;6.40;3.35;;;;;;;19.18;34.88;101501.78;1701332;82;25855;-60
2022/04/30 11:09:02;;;;;;;13.85;3.77;;;;;;;19.30;34.93;101504.18;1698555;83;98654;-61
2022/04/30 11:11:30;;;;;;;10.10;3.45;;;;;;;19.47;34.82;101497.13;1698607;82;27403;-60
2022/04/30 11:14:03;;;;;;;9.70;3.17;;;;;;;19.50;34.55;101502.37;1700210;82;99451;-59
2022/04/30 11:16:37;;;;;;;8.95;3.30;;;;;;;19.64;34.60;101496.91;1694753;82;25788;-60
2022/04/30 11:19:10;;;;;;;4.20;2.87;;;;;;;19.65;34.23;101491.85;1698540;83;26647;-60
2022/04/30 11:21:50;;;;;;;6.00;2.70;;;;;;;19.56;33.85;101491.59;1700240;82;98845;-60
2022/04/30 11:24:30;;;;;;;5.47;2.90;;;;;;;19.52;33.61;101489.58;1706064;82;28279;-60
2022/04/30 11:27:00;;;;;;;6.50;2.47;;;;;;;19.42;33.25;101482.97;1701397;82;98745;-60
2022/04/30 11:29:27;;;;;;;9.08;3.12;;;;;;;19.45;33.01;101487.72;1708743;82;26620;-60
2022/04/30 11:31:54;;;;;;;11.57;2.70;;;;;;;19.44;32.94;101483.74;1701719;82;98810;-61
2022/04/30 11:34:23;;;;;;;5.45;2.45;;;;;;;19.67;32.96;101474.94;1707666;82;25755;-60
2022/04/30 11:36:53;;;;;;;10.00;2.50;;;;;;;19.84;32.68;101476.99;1699367;82;28302;-60
2022/04/30 11:39:22;;;;;;;4.35;2.37;;;;;;;19.82;32.17;101471.66;1700600;82;99312;-60
2022/04/30 11:41:52;;;;;;;7.92;3.37;;;;;;;19.66;32.18;101471.83;1705798;82;25666;-60
2022/04/30 11:44:25;;;;;;;8.08;4.50;;;;;;;19.69;31.90;101472.98;1705149;82;99215;-61
2022/04/30 11:46:53;;;;;;;11.28;3.45;;;;;;;19.52;31.34;101471.90;1699645;82;26569;-60
2022/04/30 11:49:27;;;;;;;8.28;2.85;;;;;;;19.45;31.64;101471.41;1701080;82;27388;-61
2022/04/30 11:51:57;;;;;;;7.90;2.92;;;;;;;19.59;31.79;101462.34;1718154;81;98681;-61
2022/04/30 11:54:27;;;;;;;7.22;2.52;;;;;;;19.91;31.83;101463.34;1721679;81;25727;-60
2022/04/30 11:56:53;;;;;;;6.20;2.62;;;;;;;20.10;31.73;101464.68;1725265;81;98757;-60
2022/04/30 11:59:37;;;;;;;6.35;2.75;;;;;;;20.29;31.71;101465.61;1725843;81;25730;-59
2022/04/30 12:02:11;;;;;;;15.72;3.25;;;;;;;20.33;31.21;101461.69;1726705;81;98782;-60
2022/04/30 12:04:44;;;;;;;8.95;2.90;;;;;;;20.26;31.28;101449.50;1719644;81;25415;-60
2022/04/30 12:07:13;;;;;;;6.72;2.83;;;;;;;20.34;31.28;101450.31;1723774;81;25782;-60